sensor_id;sensor_type;location;lat;lon;timestamp;P1;durP1;ratioP1;P2;durP2;ratioP2
40284;SDS011;25997;50.214;19.354;2023-12-07T00:01:24;44.67;;;27.27;;
40284;SDS011;25997;50.214;19.354;2023-12-07T00:04:27;51.53;;;28.65;;
40284;SDS011;25997;50.214;19.354;2023-12-07T00:07:32;53.08;;;30.38;;
40284;SDS011;25997;50.214;19.354;2023-12-07T00:10:36;49.75;;;29.38;;
40284;SDS011;25997;50.214;19.354;2023-12-07T00:13:40;49.75;;;29.63;;
40284;SDS011;25997;50.214;19.354;2023-12-07T00:16:45;48.70;;;27.75;;
40284;SDS011;25997;50.214;19.354;2023-12-07T00:19:50;51.17;;;31.58;;
40284;SDS011;25997;50.214;19.354;2023-12-07T00:22:56;46.95;;;29.38;;
40284;SDS011;25997;50.214;19.354;2023-12-07T00:25:59;46.20;;;28.60;;
40284;SDS011;25997;50.214;19.354;2023-12-07T00:29:03;46.97;;;28.25;;
40284;SDS011;25997;50.214;19.354;2023-12-07T00:32:06;49.03;;;28.98;;
40284;SDS011;25997;50.214;19.354;2023-12-07T00:35:10;44.08;;;28.23;;
40284;SDS011;25997;50.214;19.354;2023-12-07T00:38:15;38.10;;;24.85;;
40284;SDS011;25997;50.214;19.354;2023-12-07T00:41:19;44.92;;;28.13;;
40284;SDS011;25997;50.214;19.354;2023-12-07T00:44:23;40.78;;;26.90;;
40284;SDS011;25997;50.214;19.354;2023-12-07T00:47:28;46.65;;;27.95;;
40284;SDS011;25997;50.214;19.354;2023-12-07T00:50:31;46.42;;;28.30;;
40284;SDS011;25997;50.214;19.354;2023-12-07T00:53:36;57.13;;;32.85;;
40284;SDS011;25997;50.214;19.354;2023-12-07T00:56:40;49.22;;;30.20;;
40284;SDS011;25997;50.214;19.354;2023-12-07T00:59:43;52.75;;;29.45;;
40284;SDS011;25997;50.214;19.354;2023-12-07T01:02:46;51.15;;;30.40;;
40284;SDS011;25997;50.214;19.354;2023-12-07T01:05:50;44.28;;;27.05;;
40284;SDS011;25997;50.214;19.354;2023-12-07T01:08:55;47.28;;;27.10;;
40284;SDS011;25997;50.214;19.354;2023-12-07T01:11:58;40.50;;;24.55;;
40284;SDS011;25997;50.214;19.354;2023-12-07T01:15:01;47.40;;;28.15;;
40284;SDS011;25997;50.214;19.354;2023-12-07T01:18:05;52.45;;;31.80;;
40284;SDS011;25997;50.214;19.354;2023-12-07T01:21:08;49.72;;;30.23;;
40284;SDS011;25997;50.214;19.354;2023-12-07T01:24:12;50.70;;;31.85;;
40284;SDS011;25997;50.214;19.354;2023-12-07T01:27:16;48.65;;;29.88;;
40284;SDS011;25997;50.214;19.354;2023-12-07T01:30:20;48.40;;;29.52;;
40284;SDS011;25997;50.214;19.354;2023-12-07T01:33:23;57.78;;;33.47;;
40284;SDS011;25997;50.214;19.354;2023-12-07T01:36:26;55.10;;;32.20;;
40284;SDS011;25997;50.214;19.354;2023-12-07T01:39:31;56.35;;;34.05;;
40284;SDS011;25997;50.214;19.354;2023-12-07T01:42:34;54.88;;;33.35;;
40284;SDS011;25997;50.214;19.354;2023-12-07T01:45:37;57.40;;;32.42;;
40284;SDS011;25997;50.214;19.354;2023-12-07T01:48:41;47.63;;;28.67;;
40284;SDS011;25997;50.214;19.354;2023-12-07T01:51:45;53.63;;;31.25;;
40284;SDS011;25997;50.214;19.354;2023-12-07T01:54:50;56.63;;;31.70;;
40284;SDS011;25997;50.214;19.354;2023-12-07T01:57:53;55.88;;;31.45;;
40284;SDS011;25997;50.214;19.354;2023-12-07T02:00:56;53.38;;;28.38;;
40284;SDS011;25997;50.214;19.354;2023-12-07T02:04:00;55.58;;;29.42;;
40284;SDS011;25997;50.214;19.354;2023-12-07T02:07:04;55.72;;;28.85;;
40284;SDS011;25997;50.214;19.354;2023-12-07T02:10:10;53.42;;;30.55;;
40284;SDS011;25997;50.214;19.354;2023-12-07T02:13:14;74.05;;;39.20;;
40284;SDS011;25997;50.214;19.354;2023-12-07T02:16:25;67.60;;;37.03;;
40284;SDS011;25997;50.214;19.354;2023-12-07T02:19:44;58.92;;;35.75;;
40284;SDS011;25997;50.214;19.354;2023-12-07T02:22:55;55.20;;;32.05;;
40284;SDS011;25997;50.214;19.354;2023-12-07T02:26:04;50.97;;;28.42;;
40284;SDS011;25997;50.214;19.354;2023-12-07T02:29:12;53.95;;;30.17;;
40284;SDS011;25997;50.214;19.354;2023-12-07T02:32:15;46.78;;;26.67;;
40284;SDS011;25997;50.214;19.354;2023-12-07T02:35:18;51.80;;;28.83;;
40284;SDS011;25997;50.214;19.354;2023-12-07T02:38:21;50.95;;;28.23;;
40284;SDS011;25997;50.214;19.354;2023-12-07T02:41:28;46.03;;;27.40;;
40284;SDS011;25997;50.214;19.354;2023-12-07T02:44:34;52.60;;;27.95;;
40284;SDS011;25997;50.214;19.354;2023-12-07T02:47:37;48.22;;;29.10;;
40284;SDS011;25997;50.214;19.354;2023-12-07T02:50:40;54.47;;;28.48;;
40284;SDS011;25997;50.214;19.354;2023-12-07T02:53:43;50.65;;;28.55;;
40284;SDS011;25997;50.214;19.354;2023-12-07T02:56:45;51.13;;;29.98;;
40284;SDS011;25997;50.214;19.354;2023-12-07T02:59:51;56.55;;;30.20;;
40284;SDS011;25997;50.214;19.354;2023-12-07T03:02:54;60.92;;;31.40;;
40284;SDS011;25997;50.214;19.354;2023-12-07T03:05:56;54.22;;;28.50;;
40284;SDS011;25997;50.214;19.354;2023-12-07T03:08:59;48.58;;;25.75;;
40284;SDS011;25997;50.214;19.354;2023-12-07T03:12:01;52.53;;;27.63;;
40284;SDS011;25997;50.214;19.354;2023-12-07T03:15:06;54.08;;;27.58;;
40284;SDS011;25997;50.214;19.354;2023-12-07T03:18:10;59.60;;;30.65;;
40284;SDS011;25997;50.214;19.354;2023-12-07T03:21:13;58.90;;;29.63;;
40284;SDS011;25997;50.214;19.354;2023-12-07T03:24:16;59.33;;;32.53;;
40284;SDS011;25997;50.214;19.354;2023-12-07T03:27:18;53.83;;;30.98;;
40284;SDS011;25997;50.214;19.354;2023-12-07T03:30:22;51.47;;;29.33;;
40284;SDS011;25997;50.214;19.354;2023-12-07T03:33:25;61.15;;;32.65;;
40284;SDS011;25997;50.214;19.354;2023-12-07T03:36:28;54.33;;;29.98;;
40284;SDS011;25997;50.214;19.354;2023-12-07T03:39:31;49.92;;;27.15;;
40284;SDS011;25997;50.214;19.354;2023-12-07T03:42:34;55.63;;;27.55;;
40284;SDS011;25997;50.214;19.354;2023-12-07T03:45:38;47.97;;;27.50;;
40284;SDS011;25997;50.214;19.354;2023-12-07T03:48:41;53.58;;;27.08;;
40284;SDS011;25997;50.214;19.354;2023-12-07T03:51:43;52.22;;;28.80;;
40284;SDS011;25997;50.214;19.354;2023-12-07T03:54:46;51.50;;;28.35;;
40284;SDS011;25997;50.214;19.354;2023-12-07T03:57:49;46.00;;;28.02;;
40284;SDS011;25997;50.214;19.354;2023-12-07T04:00:53;53.65;;;28.73;;
40284;SDS011;25997;50.214;19.354;2023-12-07T04:03:56;53.90;;;29.88;;
40284;SDS011;25997;50.214;19.354;2023-12-07T04:06:58;56.67;;;30.83;;
40284;SDS011;25997;50.214;19.354;2023-12-07T04:10:01;51.55;;;29.48;;
40284;SDS011;25997;50.214;19.354;2023-12-07T04:13:06;51.65;;;30.80;;
40284;SDS011;25997;50.214;19.354;2023-12-07T04:16:10;59.45;;;32.42;;
40284;SDS011;25997;50.214;19.354;2023-12-07T04:19:13;59.60;;;34.65;;
40284;SDS011;25997;50.214;19.354;2023-12-07T04:22:15;59.17;;;30.23;;
40284;SDS011;25997;50.214;19.354;2023-12-07T04:25:18;50.83;;;29.95;;
40284;SDS011;25997;50.214;19.354;2023-12-07T04:28:20;63.22;;;35.30;;
40284;SDS011;25997;50.214;19.354;2023-12-07T04:31:24;63.72;;;35.63;;
40284;SDS011;25997;50.214;19.354;2023-12-07T04:34:27;75.80;;;38.78;;
40284;SDS011;25997;50.214;19.354;2023-12-07T04:37:29;90.38;;;48.20;;
40284;SDS011;25997;50.214;19.354;2023-12-07T04:40:32;79.20;;;43.15;;
40284;SDS011;25997;50.214;19.354;2023-12-07T04:43:34;60.67;;;33.80;;
40284;SDS011;25997;50.214;19.354;2023-12-07T04:46:38;59.47;;;32.80;;
40284;SDS011;25997;50.214;19.354;2023-12-07T04:49:41;66.10;;;34.60;;
40284;SDS011;25997;50.214;19.354;2023-12-07T04:52:43;60.83;;;32.70;;
40284;SDS011;25997;50.214;19.354;2023-12-07T04:55:45;62.60;;;35.45;;
40284;SDS011;25997;50.214;19.354;2023-12-07T04:58:50;69.88;;;42.22;;
40284;SDS011;25997;50.214;19.354;2023-12-07T05:01:54;77.30;;;45.05;;
40284;SDS011;25997;50.214;19.354;2023-12-07T05:04:57;63.55;;;36.10;;
40284;SDS011;25997;50.214;19.354;2023-12-07T05:08:00;61.70;;;32.17;;
40284;SDS011;25997;50.214;19.354;2023-12-07T05:11:02;80.43;;;41.90;;
40284;SDS011;25997;50.214;19.354;2023-12-07T05:14:05;60.15;;;31.80;;
40284;SDS011;25997;50.214;19.354;2023-12-07T05:17:09;56.13;;;30.63;;
40284;SDS011;25997;50.214;19.354;2023-12-07T05:20:11;66.68;;;34.53;;
40284;SDS011;25997;50.214;19.354;2023-12-07T05:23:14;68.30;;;35.47;;
40284;SDS011;25997;50.214;19.354;2023-12-07T05:26:17;72.07;;;34.55;;
40284;SDS011;25997;50.214;19.354;2023-12-07T05:29:19;57.05;;;30.45;;
40284;SDS011;25997;50.214;19.354;2023-12-07T05:32:23;52.03;;;28.75;;
40284;SDS011;25997;50.214;19.354;2023-12-07T05:35:25;56.33;;;27.55;;
40284;SDS011;25997;50.214;19.354;2023-12-07T05:38:28;50.90;;;29.48;;
40284;SDS011;25997;50.214;19.354;2023-12-07T05:41:30;53.88;;;28.30;;
40284;SDS011;25997;50.214;19.354;2023-12-07T05:44:33;59.22;;;32.72;;
40284;SDS011;25997;50.214;19.354;2023-12-07T05:47:37;57.33;;;30.98;;
40284;SDS011;25997;50.214;19.354;2023-12-07T05:50:39;58.70;;;33.03;;
40284;SDS011;25997;50.214;19.354;2023-12-07T05:53:42;64.80;;;39.60;;
40284;SDS011;25997;50.214;19.354;2023-12-07T05:56:45;58.90;;;35.25;;
40284;SDS011;25997;50.214;19.354;2023-12-07T05:59:48;64.55;;;38.05;;
40284;SDS011;25997;50.214;19.354;2023-12-07T06:02:52;68.60;;;43.72;;
40284;SDS011;25997;50.214;19.354;2023-12-07T06:05:54;76.95;;;51.33;;
40284;SDS011;25997;50.214;19.354;2023-12-07T06:08:57;68.60;;;40.13;;
40284;SDS011;25997;50.214;19.354;2023-12-07T06:12:00;68.03;;;41.55;;
40284;SDS011;25997;50.214;19.354;2023-12-07T06:15:03;94.82;;;63.95;;
40284;SDS011;25997;50.214;19.354;2023-12-07T06:18:09;98.30;;;55.70;;
40284;SDS011;25997;50.214;19.354;2023-12-07T06:21:11;72.43;;;40.35;;
40284;SDS011;25997;50.214;19.354;2023-12-07T06:24:16;71.18;;;38.90;;
40284;SDS011;25997;50.214;19.354;2023-12-07T06:27:18;69.38;;;38.28;;
40284;SDS011;25997;50.214;19.354;2023-12-07T06:30:21;79.38;;;43.35;;
40284;SDS011;25997;50.214;19.354;2023-12-07T06:33:27;88.43;;;44.47;;
40284;SDS011;25997;50.214;19.354;2023-12-07T06:36:29;73.03;;;39.63;;
40284;SDS011;25997;50.214;19.354;2023-12-07T06:39:32;73.63;;;39.80;;
40284;SDS011;25997;50.214;19.354;2023-12-07T06:42:34;76.25;;;41.65;;
40284;SDS011;25997;50.214;19.354;2023-12-07T06:45:37;66.68;;;37.65;;
40284;SDS011;25997;50.214;19.354;2023-12-07T06:48:41;69.13;;;37.58;;
40284;SDS011;25997;50.214;19.354;2023-12-07T06:51:43;67.40;;;38.67;;
40284;SDS011;25997;50.214;19.354;2023-12-07T06:54:46;68.45;;;38.30;;
40284;SDS011;25997;50.214;19.354;2023-12-07T06:57:48;73.72;;;37.95;;
40284;SDS011;25997;50.214;19.354;2023-12-07T07:00:51;63.95;;;37.80;;
40284;SDS011;25997;50.214;19.354;2023-12-07T07:03:55;72.88;;;38.42;;
40284;SDS011;25997;50.214;19.354;2023-12-07T07:06:58;70.65;;;39.90;;
40284;SDS011;25997;50.214;19.354;2023-12-07T07:10:01;70.13;;;37.90;;
40284;SDS011;25997;50.214;19.354;2023-12-07T07:13:04;78.75;;;40.22;;
40284;SDS011;25997;50.214;19.354;2023-12-07T07:16:07;83.28;;;46.17;;
40284;SDS011;25997;50.214;19.354;2023-12-07T07:19:11;78.70;;;42.70;;
40284;SDS011;25997;50.214;19.354;2023-12-07T07:22:17;80.57;;;44.00;;
40284;SDS011;25997;50.214;19.354;2023-12-07T07:25:20;75.13;;;40.28;;
40284;SDS011;25997;50.214;19.354;2023-12-07T07:28:22;73.85;;;42.25;;
40284;SDS011;25997;50.214;19.354;2023-12-07T07:31:25;104.93;;;58.63;;
40284;SDS011;25997;50.214;19.354;2023-12-07T07:34:29;92.07;;;55.13;;
40284;SDS011;25997;50.214;19.354;2023-12-07T07:37:32;78.20;;;44.97;;
40284;SDS011;25997;50.214;19.354;2023-12-07T07:40:35;75.68;;;40.85;;
40284;SDS011;25997;50.214;19.354;2023-12-07T07:43:38;72.20;;;40.88;;
40284;SDS011;25997;50.214;19.354;2023-12-07T07:46:40;69.68;;;39.55;;
40284;SDS011;25997;50.214;19.354;2023-12-07T07:49:44;75.32;;;43.47;;
40284;SDS011;25997;50.214;19.354;2023-12-07T07:52:47;72.55;;;42.60;;
40284;SDS011;25997;50.214;19.354;2023-12-07T07:55:49;79.55;;;44.55;;
40284;SDS011;25997;50.214;19.354;2023-12-07T07:58:52;80.95;;;50.13;;
40284;SDS011;25997;50.214;19.354;2023-12-07T08:01:54;79.18;;;42.95;;
40284;SDS011;25997;50.214;19.354;2023-12-07T08:04:59;73.25;;;38.08;;
40284;SDS011;25997;50.214;19.354;2023-12-07T08:08:01;66.07;;;39.10;;
40284;SDS011;25997;50.214;19.354;2023-12-07T08:11:04;79.15;;;41.08;;
40284;SDS011;25997;50.214;19.354;2023-12-07T08:14:07;76.88;;;39.83;;
40284;SDS011;25997;50.214;19.354;2023-12-07T08:17:09;72.15;;;40.22;;
40284;SDS011;25997;50.214;19.354;2023-12-07T08:20:14;73.80;;;40.03;;
40284;SDS011;25997;50.214;19.354;2023-12-07T08:23:17;80.88;;;44.97;;
40284;SDS011;25997;50.214;19.354;2023-12-07T08:26:19;70.07;;;40.53;;
40284;SDS011;25997;50.214;19.354;2023-12-07T08:29:22;71.10;;;38.35;;
40284;SDS011;25997;50.214;19.354;2023-12-07T08:32:24;68.50;;;39.60;;
40284;SDS011;25997;50.214;19.354;2023-12-07T08:35:29;79.22;;;45.95;;
40284;SDS011;25997;50.214;19.354;2023-12-07T08:38:31;70.00;;;39.50;;
40284;SDS011;25997;50.214;19.354;2023-12-07T08:41:34;64.32;;;37.40;;
40284;SDS011;25997;50.214;19.354;2023-12-07T08:44:37;76.20;;;43.33;;
40284;SDS011;25997;50.214;19.354;2023-12-07T08:47:39;73.88;;;41.40;;
40284;SDS011;25997;50.214;19.354;2023-12-07T08:50:44;72.18;;;39.92;;
40284;SDS011;25997;50.214;19.354;2023-12-07T08:53:47;89.80;;;48.20;;
40284;SDS011;25997;50.214;19.354;2023-12-07T08:56:52;181.27;;;114.00;;
40284;SDS011;25997;50.214;19.354;2023-12-07T08:59:55;91.88;;;55.67;;
40284;SDS011;25997;50.214;19.354;2023-12-07T09:02:58;188.40;;;108.05;;
40284;SDS011;25997;50.214;19.354;2023-12-07T09:06:04;78.45;;;48.95;;
40284;SDS011;25997;50.214;19.354;2023-12-07T09:09:08;79.45;;;46.03;;
40284;SDS011;25997;50.214;19.354;2023-12-07T09:12:12;68.97;;;42.17;;
40284;SDS011;25997;50.214;19.354;2023-12-07T09:15:14;110.88;;;67.57;;
40284;SDS011;25997;50.214;19.354;2023-12-07T09:18:17;81.65;;;47.90;;
40284;SDS011;25997;50.214;19.354;2023-12-07T09:21:21;71.25;;;41.72;;
40284;SDS011;25997;50.214;19.354;2023-12-07T09:24:24;118.00;;;68.63;;
40284;SDS011;25997;50.214;19.354;2023-12-07T09:27:26;84.70;;;47.47;;
40284;SDS011;25997;50.214;19.354;2023-12-07T09:30:32;91.07;;;50.70;;
40284;SDS011;25997;50.214;19.354;2023-12-07T09:33:35;78.30;;;44.67;;
40284;SDS011;25997;50.214;19.354;2023-12-07T09:36:39;134.18;;;69.93;;
40284;SDS011;25997;50.214;19.354;2023-12-07T09:39:41;95.78;;;52.95;;
40284;SDS011;25997;50.214;19.354;2023-12-07T09:42:44;128.00;;;70.03;;
40284;SDS011;25997;50.214;19.354;2023-12-07T09:45:47;88.63;;;49.85;;
40284;SDS011;25997;50.214;19.354;2023-12-07T09:48:50;84.15;;;45.92;;
40284;SDS011;25997;50.214;19.354;2023-12-07T09:51:54;81.97;;;46.22;;
40284;SDS011;25997;50.214;19.354;2023-12-07T09:54:58;94.82;;;55.50;;
40284;SDS011;25997;50.214;19.354;2023-12-07T09:58:03;139.15;;;86.05;;
40284;SDS011;25997;50.214;19.354;2023-12-07T10:01:06;218.48;;;126.65;;
40284;SDS011;25997;50.214;19.354;2023-12-07T10:04:15;208.68;;;123.45;;
40284;SDS011;25997;50.214;19.354;2023-12-07T10:07:20;126.68;;;81.88;;
40284;SDS011;25997;50.214;19.354;2023-12-07T10:10:34;104.43;;;64.93;;
40284;SDS011;25997;50.214;19.354;2023-12-07T10:13:37;81.43;;;50.50;;
40284;SDS011;25997;50.214;19.354;2023-12-07T10:16:51;107.85;;;62.80;;
40284;SDS011;25997;50.214;19.354;2023-12-07T10:20:06;115.72;;;58.08;;
40284;SDS011;25997;50.214;19.354;2023-12-07T10:23:11;106.90;;;63.13;;
40284;SDS011;25997;50.214;19.354;2023-12-07T10:26:18;84.22;;;48.05;;
40284;SDS011;25997;50.214;19.354;2023-12-07T10:29:21;79.75;;;46.50;;
40284;SDS011;25997;50.214;19.354;2023-12-07T10:32:24;91.88;;;49.05;;
40284;SDS011;25997;50.214;19.354;2023-12-07T10:35:27;86.18;;;47.80;;
40284;SDS011;25997;50.214;19.354;2023-12-07T10:38:31;81.15;;;44.83;;
40284;SDS011;25997;50.214;19.354;2023-12-07T10:41:34;77.45;;;45.58;;
40284;SDS011;25997;50.214;19.354;2023-12-07T10:44:41;72.93;;;42.88;;
40284;SDS011;25997;50.214;19.354;2023-12-07T10:47:44;70.90;;;42.72;;
40284;SDS011;25997;50.214;19.354;2023-12-07T10:50:47;79.03;;;44.45;;
40284;SDS011;25997;50.214;19.354;2023-12-07T10:53:57;90.35;;;49.00;;
40284;SDS011;25997;50.214;19.354;2023-12-07T10:57:04;83.83;;;49.87;;
40284;SDS011;25997;50.214;19.354;2023-12-07T11:00:10;87.00;;;53.70;;
40284;SDS011;25997;50.214;19.354;2023-12-07T11:03:14;84.40;;;48.05;;
40284;SDS011;25997;50.214;19.354;2023-12-07T11:06:18;82.03;;;47.55;;
40284;SDS011;25997;50.214;19.354;2023-12-07T11:09:24;80.72;;;47.13;;
40284;SDS011;25997;50.214;19.354;2023-12-07T11:12:33;81.90;;;46.92;;
40284;SDS011;25997;50.214;19.354;2023-12-07T11:15:42;81.53;;;47.22;;
40284;SDS011;25997;50.214;19.354;2023-12-07T11:18:45;87.30;;;50.80;;
40284;SDS011;25997;50.214;19.354;2023-12-07T11:21:47;83.45;;;51.65;;
40284;SDS011;25997;50.214;19.354;2023-12-07T11:24:56;86.70;;;54.70;;
40284;SDS011;25997;50.214;19.354;2023-12-07T11:28:02;86.10;;;51.63;;
40284;SDS011;25997;50.214;19.354;2023-12-07T11:31:06;90.55;;;52.67;;
40284;SDS011;25997;50.214;19.354;2023-12-07T11:34:08;177.40;;;89.15;;
40284;SDS011;25997;50.214;19.354;2023-12-07T11:37:14;145.73;;;76.43;;
40284;SDS011;25997;50.214;19.354;2023-12-07T11:40:19;76.30;;;47.22;;
40284;SDS011;25997;50.214;19.354;2023-12-07T11:43:30;113.00;;;60.63;;
40284;SDS011;25997;50.214;19.354;2023-12-07T11:46:40;91.45;;;54.53;;
40284;SDS011;25997;50.214;19.354;2023-12-07T11:49:42;84.00;;;46.50;;
40284;SDS011;25997;50.214;19.354;2023-12-07T11:52:45;80.80;;;45.25;;
40284;SDS011;25997;50.214;19.354;2023-12-07T11:55:49;80.82;;;46.90;;
40284;SDS011;25997;50.214;19.354;2023-12-07T11:58:52;73.00;;;44.53;;
40284;SDS011;25997;50.214;19.354;2023-12-07T12:01:56;90.47;;;50.70;;
40284;SDS011;25997;50.214;19.354;2023-12-07T12:05:01;89.95;;;54.78;;
40284;SDS011;25997;50.214;19.354;2023-12-07T12:08:06;105.93;;;59.97;;
40284;SDS011;25997;50.214;19.354;2023-12-07T12:11:10;92.30;;;53.53;;
40284;SDS011;25997;50.214;19.354;2023-12-07T12:14:13;101.80;;;54.28;;
40284;SDS011;25997;50.214;19.354;2023-12-07T12:17:16;100.30;;;58.83;;
40284;SDS011;25997;50.214;19.354;2023-12-07T12:20:20;77.45;;;45.65;;
40284;SDS011;25997;50.214;19.354;2023-12-07T12:23:23;101.22;;;55.17;;
40284;SDS011;25997;50.214;19.354;2023-12-07T12:26:27;92.32;;;54.28;;
40284;SDS011;25997;50.214;19.354;2023-12-07T12:29:30;111.15;;;63.63;;
40284;SDS011;25997;50.214;19.354;2023-12-07T12:32:41;132.80;;;67.88;;
40284;SDS011;25997;50.214;19.354;2023-12-07T12:35:44;91.32;;;52.47;;
40284;SDS011;25997;50.214;19.354;2023-12-07T12:38:47;99.13;;;62.67;;
40284;SDS011;25997;50.214;19.354;2023-12-07T12:41:55;83.90;;;49.03;;
40284;SDS011;25997;50.214;19.354;2023-12-07T12:44:58;73.00;;;43.72;;
40284;SDS011;25997;50.214;19.354;2023-12-07T12:48:00;75.53;;;44.75;;
40284;SDS011;25997;50.214;19.354;2023-12-07T12:51:12;86.35;;;52.50;;
40284;SDS011;25997;50.214;19.354;2023-12-07T12:54:15;77.05;;;46.10;;
40284;SDS011;25997;50.214;19.354;2023-12-07T12:57:19;97.53;;;57.65;;
40284;SDS011;25997;50.214;19.354;2023-12-07T13:00:22;122.00;;;66.50;;
40284;SDS011;25997;50.214;19.354;2023-12-07T13:03:24;131.93;;;71.20;;
40284;SDS011;25997;50.214;19.354;2023-12-07T13:06:27;192.63;;;99.50;;
40284;SDS011;25997;50.214;19.354;2023-12-07T13:09:29;128.50;;;68.30;;
40284;SDS011;25997;50.214;19.354;2023-12-07T13:12:33;87.70;;;55.97;;
40284;SDS011;25997;50.214;19.354;2023-12-07T13:15:36;90.32;;;53.53;;
40284;SDS011;25997;50.214;19.354;2023-12-07T13:18:38;109.55;;;67.05;;
40284;SDS011;25997;50.214;19.354;2023-12-07T13:21:41;100.72;;;63.95;;
40284;SDS011;25997;50.214;19.354;2023-12-07T13:24:45;107.68;;;61.72;;
40284;SDS011;25997;50.214;19.354;2023-12-07T13:27:51;104.30;;;63.47;;
40284;SDS011;25997;50.214;19.354;2023-12-07T13:30:55;127.40;;;70.00;;
40284;SDS011;25997;50.214;19.354;2023-12-07T13:33:57;88.68;;;55.42;;
40284;SDS011;25997;50.214;19.354;2023-12-07T13:37:00;91.55;;;52.92;;
40284;SDS011;25997;50.214;19.354;2023-12-07T13:40:03;88.28;;;57.72;;
40284;SDS011;25997;50.214;19.354;2023-12-07T13:43:12;83.47;;;49.38;;
40284;SDS011;25997;50.214;19.354;2023-12-07T13:46:14;85.07;;;49.88;;
40284;SDS011;25997;50.214;19.354;2023-12-07T13:49:17;91.40;;;51.45;;
40284;SDS011;25997;50.214;19.354;2023-12-07T13:52:19;86.63;;;52.05;;
40284;SDS011;25997;50.214;19.354;2023-12-07T13:55:22;91.78;;;55.55;;
40284;SDS011;25997;50.214;19.354;2023-12-07T13:58:26;88.32;;;56.00;;
40284;SDS011;25997;50.214;19.354;2023-12-07T14:01:28;89.55;;;57.05;;
40284;SDS011;25997;50.214;19.354;2023-12-07T14:04:33;85.95;;;51.75;;
40284;SDS011;25997;50.214;19.354;2023-12-07T14:07:36;87.40;;;53.30;;
40284;SDS011;25997;50.214;19.354;2023-12-07T14:10:38;91.50;;;51.42;;
40284;SDS011;25997;50.214;19.354;2023-12-07T14:13:42;84.00;;;48.70;;
40284;SDS011;25997;50.214;19.354;2023-12-07T14:16:46;113.28;;;67.50;;
40284;SDS011;25997;50.214;19.354;2023-12-07T14:19:49;116.93;;;68.72;;
40284;SDS011;25997;50.214;19.354;2023-12-07T14:22:54;111.95;;;66.35;;
40284;SDS011;25997;50.214;19.354;2023-12-07T14:25:57;89.53;;;54.47;;
40284;SDS011;25997;50.214;19.354;2023-12-07T14:29:01;87.75;;;52.47;;
40284;SDS011;25997;50.214;19.354;2023-12-07T14:32:04;88.80;;;52.72;;
40284;SDS011;25997;50.214;19.354;2023-12-07T14:35:07;86.90;;;51.80;;
40284;SDS011;25997;50.214;19.354;2023-12-07T14:38:10;109.88;;;60.80;;
40284;SDS011;25997;50.214;19.354;2023-12-07T14:41:15;101.07;;;59.92;;
40284;SDS011;25997;50.214;19.354;2023-12-07T14:44:19;141.30;;;80.65;;
40284;SDS011;25997;50.214;19.354;2023-12-07T14:47:22;190.40;;;97.30;;
40284;SDS011;25997;50.214;19.354;2023-12-07T14:50:24;112.13;;;63.83;;
40284;SDS011;25997;50.214;19.354;2023-12-07T14:53:27;114.45;;;61.42;;
40284;SDS011;25997;50.214;19.354;2023-12-07T14:56:29;117.55;;;65.60;;
40284;SDS011;25997;50.214;19.354;2023-12-07T14:59:35;94.38;;;54.17;;
40284;SDS011;25997;50.214;19.354;2023-12-07T15:02:38;95.57;;;54.65;;
40284;SDS011;25997;50.214;19.354;2023-12-07T15:05:40;100.88;;;58.50;;
40284;SDS011;25997;50.214;19.354;2023-12-07T15:08:43;89.03;;;55.20;;
40284;SDS011;25997;50.214;19.354;2023-12-07T15:11:45;91.43;;;51.15;;
40284;SDS011;25997;50.214;19.354;2023-12-07T15:14:49;95.80;;;58.08;;
40284;SDS011;25997;50.214;19.354;2023-12-07T15:17:52;94.72;;;53.60;;
40284;SDS011;25997;50.214;19.354;2023-12-07T15:20:54;103.57;;;66.47;;
40284;SDS011;25997;50.214;19.354;2023-12-07T15:23:57;111.70;;;67.95;;
40284;SDS011;25997;50.214;19.354;2023-12-07T15:27:00;110.55;;;61.10;;
40284;SDS011;25997;50.214;19.354;2023-12-07T15:30:05;108.50;;;62.25;;
40284;SDS011;25997;50.214;19.354;2023-12-07T15:33:10;116.00;;;80.78;;
40284;SDS011;25997;50.214;19.354;2023-12-07T15:36:13;99.47;;;57.50;;
40284;SDS011;25997;50.214;19.354;2023-12-07T15:39:15;111.30;;;60.95;;
40284;SDS011;25997;50.214;19.354;2023-12-07T15:42:18;107.32;;;63.88;;
40284;SDS011;25997;50.214;19.354;2023-12-07T15:45:22;95.70;;;57.88;;
40284;SDS011;25997;50.214;19.354;2023-12-07T15:48:24;144.68;;;73.22;;
40284;SDS011;25997;50.214;19.354;2023-12-07T15:51:27;106.25;;;60.33;;
40284;SDS011;25997;50.214;19.354;2023-12-07T15:54:29;110.13;;;59.85;;
40284;SDS011;25997;50.214;19.354;2023-12-07T15:57:32;111.47;;;61.00;;
40284;SDS011;25997;50.214;19.354;2023-12-07T16:00:36;109.07;;;65.93;;
40284;SDS011;25997;50.214;19.354;2023-12-07T16:03:39;105.63;;;61.97;;
40284;SDS011;25997;50.214;19.354;2023-12-07T16:06:42;106.70;;;63.60;;
40284;SDS011;25997;50.214;19.354;2023-12-07T16:09:44;106.50;;;61.63;;
40284;SDS011;25997;50.214;19.354;2023-12-07T16:12:47;111.10;;;64.20;;
40284;SDS011;25997;50.214;19.354;2023-12-07T16:15:51;137.63;;;71.70;;
40284;SDS011;25997;50.214;19.354;2023-12-07T16:18:53;115.82;;;65.63;;
40284;SDS011;25997;50.214;19.354;2023-12-07T16:21:56;118.10;;;66.47;;
40284;SDS011;25997;50.214;19.354;2023-12-07T16:24:58;104.45;;;59.25;;
40284;SDS011;25997;50.214;19.354;2023-12-07T16:28:03;107.05;;;62.38;;
40284;SDS011;25997;50.214;19.354;2023-12-07T16:31:08;99.40;;;60.05;;
40284;SDS011;25997;50.214;19.354;2023-12-07T16:34:10;110.63;;;70.45;;
40284;SDS011;25997;50.214;19.354;2023-12-07T16:37:13;100.05;;;58.40;;
40284;SDS011;25997;50.214;19.354;2023-12-07T16:40:15;136.52;;;72.53;;
40284;SDS011;25997;50.214;19.354;2023-12-07T16:43:18;130.07;;;72.10;;
40284;SDS011;25997;50.214;19.354;2023-12-07T16:46:22;112.25;;;64.47;;
40284;SDS011;25997;50.214;19.354;2023-12-07T16:49:24;106.45;;;59.63;;
40284;SDS011;25997;50.214;19.354;2023-12-07T16:52:27;114.90;;;63.22;;
40284;SDS011;25997;50.214;19.354;2023-12-07T16:55:30;108.30;;;64.18;;
40284;SDS011;25997;50.214;19.354;2023-12-07T16:58:32;129.50;;;71.57;;
40284;SDS011;25997;50.214;19.354;2023-12-07T17:01:36;110.43;;;62.30;;
40284;SDS011;25997;50.214;19.354;2023-12-07T17:04:38;106.22;;;61.22;;
40284;SDS011;25997;50.214;19.354;2023-12-07T17:07:41;128.80;;;70.60;;
40284;SDS011;25997;50.214;19.354;2023-12-07T17:10:44;119.07;;;64.43;;
40284;SDS011;25997;50.214;19.354;2023-12-07T17:13:46;117.63;;;62.85;;
40284;SDS011;25997;50.214;19.354;2023-12-07T17:16:50;124.03;;;66.90;;
40284;SDS011;25997;50.214;19.354;2023-12-07T17:19:53;129.25;;;66.68;;
40284;SDS011;25997;50.214;19.354;2023-12-07T17:22:57;111.70;;;65.28;;
40284;SDS011;25997;50.214;19.354;2023-12-07T17:25:59;122.22;;;68.68;;
40284;SDS011;25997;50.214;19.354;2023-12-07T17:29:02;117.50;;;65.55;;
40284;SDS011;25997;50.214;19.354;2023-12-07T17:32:06;144.85;;;81.78;;
40284;SDS011;25997;50.214;19.354;2023-12-07T17:35:08;142.57;;;76.32;;